Time;durP1;ratioP1;P1;durP2;ratioP2;P2;SDS_P1;SDS_P2;PMS_P1;PMS_P2;Temp;Humidity;BMP_temperature;BMP_pressure;BME280_temperature;BME280_humidity;BME280_pressure;Samples;Min_cycle;Max_cycle;Signal;HPM_P1;HPM_P2
2021/01/14 00:01:20;;;;;;;6.30;1.23;;;3.40;97.30;;;;;;5074175;28;20040;-70
2021/01/14 00:03:45;;;;;;;7.43;1.42;;;3.30;97.40;;;;;;5074126;28;20039;-70
2021/01/14 00:06:13;;;;;;;7.60;1.70;;;3.30;97.30;;;;;;5075580;28;20028;-71
2021/01/14 00:08:38;;;;;;;8.98;1.35;;;3.40;97.30;;;;;;5074180;28;20459;-70
2021/01/14 00:11:04;;;;;;;8.10;1.65;;;3.50;97.30;;;;;;5074354;28;20170;-72
2021/01/14 00:13:30;;;;;;;6.50;1.50;;;3.50;97.10;;;;;;5073691;28;20032;-70
2021/01/14 00:15:55;;;;;;;6.90;1.50;;;3.50;96.60;;;;;;5073046;28;20033;-69
2021/01/14 00:18:21;;;;;;;4.75;1.58;;;3.50;96.50;;;;;;5075408;28;20115;-69
2021/01/14 00:20:46;;;;;;;2.92;0.93;;;3.40;96.30;;;;;;5074118;28;20043;-70
2021/01/14 00:23:12;;;;;;;3.10;0.93;;;3.50;96.30;;;;;;5071551;28;20036;-70
2021/01/14 00:25:38;;;;;;;3.80;1.27;;;3.50;96.30;;;;;;5074009;28;20035;-69
2021/01/14 00:28:03;;;;;;;4.30;1.40;;;3.50;96.20;;;;;;5072754;28;20031;-69
2021/01/14 00:30:31;;;;;;;5.55;1.40;;;3.50;96.10;;;;;;5072973;28;20029;-69
2021/01/14 00:33:00;;;;;;;7.95;1.02;;;3.50;95.90;;;;;;5054850;28;20084;-69
2021/01/14 00:35:27;;;;;;;9.88;1.92;;;3.50;95.70;;;;;;5053366;28;20040;-70
2021/01/14 00:37:53;;;;;;;6.32;1.58;;;3.40;95.60;;;;;;5064247;28;20047;-69
2021/01/14 00:40:21;;;;;;;5.07;1.17;;;3.40;95.80;;;;;;5073465;28;20032;-69
2021/01/14 00:42:57;;;;;;;3.13;1.30;;;3.20;95.80;;;;;;5072510;28;20125;-70
2021/01/14 00:45:22;;;;;;;5.32;1.27;;;3.40;96.10;;;;;;5074976;28;20049;-69
2021/01/14 00:47:48;;;;;;;8.57;1.55;;;3.40;96.00;;;;;;5072341;28;20527;-70
2021/01/14 00:50:14;;;;;;;6.03;1.77;;;3.40;95.70;;;;;;5073274;28;20450;-69
2021/01/14 00:52:40;;;;;;;8.77;1.30;;;3.40;96.10;;;;;;5073218;28;20089;-69
2021/01/14 00:55:08;;;;;;;9.52;1.65;;;3.60;95.80;;;;;;5073023;28;20139;-70
2021/01/14 00:57:37;;;;;;;2.53;1.13;;;3.50;95.90;;;;;;5072394;28;20028;-69
2021/01/14 01:00:06;;;;;;;7.20;1.23;;;3.50;95.70;;;;;;5073653;28;20354;-69
2021/01/14 01:02:32;;;;;;;5.07;1.13;;;3.40;95.70;;;;;;5072298;28;20119;-69
2021/01/14 01:04:57;;;;;;;5.15;1.48;;;3.50;95.60;;;;;;5071838;28;20124;-69
2021/01/14 01:07:23;;;;;;;3.75;1.10;;;3.40;95.50;;;;;;5071670;28;20342;-69
2021/01/14 01:09:48;;;;;;;6.40;1.13;;;3.40;95.70;;;;;;5071863;28;20036;-69
2021/01/14 01:12:14;;;;;;;3.55;1.20;;;3.30;95.60;;;;;;5074404;28;20028;-69
2021/01/14 01:14:40;;;;;;;6.68;1.70;;;3.40;95.50;;;;;;5072689;28;20071;-70
2021/01/14 01:17:05;;;;;;;1.60;1.05;;;3.30;95.50;;;;;;5073113;28;20056;-68
2021/01/14 01:19:31;;;;;;;3.83;1.30;;;3.20;95.70;;;;;;5071442;28;20024;-69
2021/01/14 01:21:57;;;;;;;4.10;1.30;;;3.30;95.60;;;;;;5072446;28;20074;-69
2021/01/14 01:24:22;;;;;;;2.92;1.15;;;3.20;95.50;;;;;;5073158;28;20013;-69
2021/01/14 01:26:52;;;;;;;4.45;1.23;;;3.00;95.60;;;;;;5072557;28;20051;-69
2021/01/14 01:29:21;;;;;;;4.88;1.35;;;3.00;95.70;;;;;;5057493;28;20033;-69
2021/01/14 01:31:47;;;;;;;4.35;1.30;;;3.10;95.70;;;;;;5052524;28;20055;-69
2021/01/14 01:34:13;;;;;;;4.45;1.17;;;3.10;95.60;;;;;;5051408;28;20104;-69
2021/01/14 01:36:41;;;;;;;4.28;1.15;;;3.20;95.50;;;;;;5052316;28;20114;-69
2021/01/14 01:39:07;;;;;;;5.82;1.10;;;3.20;95.50;;;;;;5053341;28;20471;-69
2021/01/14 01:41:33;;;;;;;4.95;1.25;;;3.10;95.50;;;;;;5051273;28;20045;-69
2021/01/14 01:43:58;;;;;;;2.90;1.40;;;3.10;95.70;;;;;;5064870;28;20363;-69
2021/01/14 01:46:29;;;;;;;4.75;1.42;;;3.00;95.70;;;;;;5071205;28;20039;-69
2021/01/14 01:48:57;;;;;;;4.38;1.20;;;3.10;95.80;;;;;;5072348;28;20036;-70
2021/01/14 01:51:27;;;;;;;6.40;1.48;;;3.10;95.80;;;;;;5073852;28;20043;-72
2021/01/14 01:53:53;;;;;;;7.40;1.50;;;3.20;95.90;;;;;;5072585;28;20477;-69
2021/01/14 01:56:19;;;;;;;7.90;1.40;;;3.20;95.80;;;;;;5070625;28;20119;-70
2021/01/14 01:58:45;;;;;;;4.20;1.30;;;3.30;95.90;;;;;;5071718;28;20123;-69
2021/01/14 02:01:11;;;;;;;6.93;1.40;;;3.30;95.70;;;;;;5072131;28;20130;-69
2021/01/14 02:03:37;;;;;;;3.78;0.90;;;3.30;95.60;;;;;;5072450;28;20035;-70
2021/01/14 02:06:03;;;;;;;3.78;1.02;;;2.90;95.80;;;;;;5073510;28;20405;-69
2021/01/14 02:09:03;;;;;;;10.02;1.70;;;2.90;96.20;;;;;;5072055;28;20166;-69
2021/01/14 02:11:34;;;;;;;4.90;1.80;;;3.10;96.20;;;;;;5045023;28;20339;-69
2021/01/14 02:14:16;;;;;;;5.07;1.23;;;3.20;96.20;;;;;;5051590;28;20444;-69
2021/01/14 02:16:50;;;;;;;5.70;1.27;;;3.20;96.00;;;;;;5051744;28;20079;-68
2021/01/14 02:19:22;;;;;;;4.60;1.30;;;3.10;96.10;;;;;;5051613;28;20378;-69
2021/01/14 02:21:53;;;;;;;5.22;1.10;;;3.20;96.30;;;;;;5051972;28;20029;-69
2021/01/14 02:24:27;;;;;;;5.38;1.33;;;3.30;96.20;;;;;;5053317;28;20048;-69
2021/01/14 02:26:53;;;;;;;5.35;1.45;;;3.40;96.40;;;;;;5052036;28;20040;-68
2021/01/14 02:29:19;;;;;;;3.70;1.15;;;3.20;96.20;;;;;;5051795;28;20513;-69
2021/01/14 02:31:45;;;;;;;8.07;1.42;;;3.20;96.30;;;;;;5061130;28;20040;-69
2021/01/14 02:34:10;;;;;;;5.15;1.40;;;3.10;96.40;;;;;;5064737;28;20041;-69
2021/01/14 02:36:36;;;;;;;12.32;2.75;;;3.10;96.30;;;;;;5051899;28;20056;-69
2021/01/14 02:39:02;;;;;;;7.78;1.33;;;3.20;96.30;;;;;;5052965;28;20490;-69
2021/01/14 02:41:28;;;;;;;5.38;1.33;;;3.40;96.50;;;;;;5051587;28;20040;-69
2021/01/14 02:43:53;;;;;;;4.45;1.55;;;3.40;96.30;;;;;;5051515;28;20044;-69
2021/01/14 02:46:22;;;;;;;3.42;1.25;;;3.50;96.20;;;;;;5051321;28;20033;-69
2021/01/14 02:48:56;;;;;;;4.88;1.13;;;3.30;96.20;;;;;;5051316;28;20021;-69
2021/01/14 02:51:35;;;;;;;7.18;1.38;;;3.40;96.30;;;;;;5054689;28;20012;-69
2021/01/14 02:54:02;;;;;;;5.47;1.10;;;3.40;96.10;;;;;;5055795;28;20041;-69
2021/01/14 02:56:31;;;;;;;4.82;1.58;;;3.40;96.20;;;;;;5055526;28;20367;-69
2021/01/14 02:58:57;;;;;;;9.63;1.45;;;3.40;96.10;;;;;;5067773;28;20064;-70
2021/01/14 03:01:23;;;;;;;4.22;1.27;;;3.40;96.30;;;;;;5075264;28;20048;-70
2021/01/14 03:03:48;;;;;;;5.13;1.50;;;3.30;96.30;;;;;;5075152;28;20056;-69
2021/01/14 03:06:14;;;;;;;4.28;1.88;;;3.30;96.30;;;;;;5076804;28;20415;-69
2021/01/14 03:08:40;;;;;;;5.25;1.58;;;3.30;96.60;;;;;;5075586;28;20123;-68
2021/01/14 03:11:05;;;;;;;5.03;1.42;;;3.40;96.50;;;;;;5075099;28;20115;-69
2021/01/14 03:13:31;;;;;;;6.07;1.73;;;3.50;96.40;;;;;;5074040;28;20036;-70
2021/01/14 03:15:56;;;;;;;4.30;1.70;;;3.40;96.40;;;;;;5073921;28;20091;-68
2021/01/14 03:18:22;;;;;;;3.83;1.30;;;3.60;96.30;;;;;;5076557;28;20090;-68
2021/01/14 03:20:51;;;;;;;6.28;1.58;;;3.70;96.30;;;;;;5074897;28;20033;-70
2021/01/14 03:23:16;;;;;;;5.43;1.73;;;3.70;96.20;;;;;;5075485;28;20182;-69
2021/01/14 03:25:43;;;;;;;11.52;2.63;;;3.80;96.30;;;;;;5074929;28;20123;-70
2021/01/14 03:28:09;;;;;;;5.63;1.80;;;3.80;96.20;;;;;;5075003;28;20029;-69
2021/01/14 03:30:34;;;;;;;6.45;1.73;;;3.80;96.30;;;;;;5074889;28;20103;-69
2021/01/14 03:33:00;;;;;;;5.32;1.70;;;3.80;96.20;;;;;;5075366;28;20170;-70
2021/01/14 03:35:26;;;;;;;6.55;1.85;;;3.80;96.20;;;;;;5073534;28;20060;-69
2021/01/14 03:37:51;;;;;;;4.75;1.65;;;3.70;96.30;;;;;;5074393;28;20040;-69
2021/01/14 03:40:17;;;;;;;4.25;1.58;;;3.60;96.40;;;;;;5074745;28;20036;-69
2021/01/14 03:42:43;;;;;;;4.40;2.10;;;3.70;96.40;;;;;;5074517;28;20034;-69
2021/01/14 03:45:09;;;;;;;9.63;1.92;;;3.80;96.40;;;;;;5076194;28;20077;-70
2021/01/14 03:47:35;;;;;;;3.95;1.38;;;3.80;96.20;;;;;;5074251;28;20064;-69
2021/01/14 03:50:01;;;;;;;7.80;1.45;;;3.80;96.20;;;;;;5074430;28;20047;-70
2021/01/14 03:52:27;;;;;;;6.72;2.08;;;3.60;96.10;;;;;;5074279;28;20042;-69
2021/01/14 03:54:53;;;;;;;6.68;1.95;;;3.70;96.30;;;;;;5074393;28;20035;-69
2021/01/14 03:57:18;;;;;;;8.05;2.10;;;3.40;96.40;;;;;;5074744;28;20089;-69
2021/01/14 03:59:44;;;;;;;5.47;1.90;;;3.60;96.60;;;;;;5074432;28;20484;-69
2021/01/14 04:02:10;;;;;;;4.70;1.80;;;3.70;96.50;;;;;;5073875;28;20040;-70
2021/01/14 04:04:41;;;;;;;5.70;1.88;;;3.70;96.60;;;;;;5073049;28;20024;-70
2021/01/14 04:07:12;;;;;;;6.03;2.00;;;3.80;96.60;;;;;;5074160;28;20024;-68
2021/01/14 04:09:39;;;;;;;6.78;1.83;;;3.90;96.50;;;;;;5074100;28;20020;-69
2021/01/14 04:12:06;;;;;;;3.65;1.98;;;3.90;96.50;;;;;;5075549;28;20442;-68
2021/01/14 04:14:32;;;;;;;9.15;2.05;;;4.00;96.50;;;;;;5074215;28;20044;-69
2021/01/14 04:16:58;;;;;;;5.53;1.80;;;4.10;96.40;;;;;;5072999;28;20263;-69
2021/01/14 04:19:23;;;;;;;9.15;2.10;;;4.00;96.40;;;;;;5074031;28;20347;-71
2021/01/14 04:21:49;;;;;;;4.28;1.77;;;4.10;96.50;;;;;;5073656;28;20036;-70
2021/01/14 04:24:15;;;;;;;8.75;2.53;;;4.10;96.30;;;;;;5075226;28;20039;-69
2021/01/14 04:26:41;;;;;;;5.35;2.30;;;4.00;96.40;;;;;;5072290;28;20044;-70
2021/01/14 04:29:08;;;;;;;4.80;2.15;;;4.10;96.50;;;;;;5073441;28;20110;-69
2021/01/14 04:31:34;;;;;;;7.68;2.63;;;4.00;96.40;;;;;;5073635;28;20028;-69
2021/01/14 04:34:00;;;;;;;5.82;2.30;;;3.90;96.60;;;;;;5073751;28;20028;-68
2021/01/14 04:36:26;;;;;;;4.75;2.15;;;4.00;96.60;;;;;;5075195;28;20021;-70
2021/01/14 04:38:52;;;;;;;6.47;2.20;;;4.10;96.90;;;;;;5072686;28;20482;-70
2021/01/14 04:41:19;;;;;;;6.47;2.85;;;4.20;96.60;;;;;;5072282;28;20410;-71
2021/01/14 04:43:46;;;;;;;9.67;2.87;;;4.10;96.40;;;;;;5073277;28;20046;-70
2021/01/14 04:46:13;;;;;;;7.30;2.28;;;3.90;96.60;;;;;;5072266;28;20261;-69
2021/01/14 04:48:44;;;;;;;4.47;2.13;;;4.00;96.70;;;;;;5055757;28;20020;-69
2021/01/14 04:51:12;;;;;;;7.43;2.30;;;3.90;96.70;;;;;;5075002;28;20024;-70
2021/01/14 04:53:39;;;;;;;;;;;4.00;96.90;;;;;;5073587;28;20047;-70
2021/01/14 04:56:07;;;;;;;9.20;2.40;;;4.20;96.80;;;;;;5073138;28;19912;-70
2021/01/14 04:58:40;;;;;;;11.63;2.53;;;4.30;96.60;;;;;;5073136;28;20032;-69
2021/01/14 05:01:20;;;;;;;5.35;2.28;;;4.20;96.60;;;;;;5073126;28;20033;-69
2021/01/14 05:03:48;;;;;;;7.05;2.38;;;4.20;96.60;;;;;;5072978;28;20081;-69
2021/01/14 05:06:19;;;;;;;4.63;2.17;;;4.20;96.60;;;;;;5074598;28;20106;-69
2021/01/14 05:08:49;;;;;;;7.15;2.53;;;4.30;96.70;;;;;;5072662;28;20378;-69
2021/01/14 05:11:18;;;;;;;10.40;3.33;;;4.40;96.50;;;;;;5072929;28;20186;-70
2021/01/14 05:13:44;;;;;;;9.15;3.00;;;4.40;96.40;;;;;;5071540;28;20075;-70
2021/01/14 05:16:11;;;;;;;8.63;2.67;;;4.20;96.50;;;;;;5072423;28;20039;-69
2021/01/14 05:18:36;;;;;;;6.85;2.83;;;3.90;96.80;;;;;;5072621;28;20438;-71
2021/01/14 05:21:03;;;;;;;10.23;3.20;;;4.00;97.20;;;;;;5074143;28;20100;-71
2021/01/14 05:23:31;;;;;;;6.53;2.85;;;4.10;97.10;;;;;;5055807;28;20463;-70
2021/01/14 05:25:57;;;;;;;;;;;4.20;97.00;;;;;;5052568;28;20029;-70
2021/01/14 05:28:28;;;;;;;11.93;2.80;;;4.20;96.90;;;;;;5052492;28;19908;-68
2021/01/14 05:30:54;;;;;;;5.65;2.58;;;4.00;97.20;;;;;;5052532;28;20362;-70
2021/01/14 05:33:22;;;;;;;7.13;3.25;;;4.00;97.50;;;;;;5053926;28;20348;-70
2021/01/14 05:35:49;;;;;;;11.55;3.10;;;4.10;97.60;;;;;;5051411;28;20029;-69
2021/01/14 05:38:25;;;;;;;8.65;3.35;;;3.90;97.70;;;;;;5052281;28;20072;-70
2021/01/14 05:41:19;;;;;;;9.32;3.30;;;4.10;97.90;;;;;;5050949;28;20029;-70
2021/01/14 05:43:59;;;;;;;10.27;3.42;;;3.90;97.90;;;;;;5051288;28;20052;-70
2021/01/14 05:46:27;;;;;;;7.05;2.97;;;4.10;98.30;;;;;;5060310;28;20028;-70
2021/01/14 05:48:56;;;;;;;10.30;3.25;;;4.20;98.20;;;;;;5072595;28;20040;-70
2021/01/14 05:51:31;;;;;;;7.97;3.58;;;4.20;98.10;;;;;;5074416;28;20024;-71
2021/01/14 05:54:02;;;;;;;10.98;3.10;;;4.20;98.20;;;;;;5071218;28;20111;-70
2021/01/14 05:56:32;;;;;;;8.23;3.15;;;4.10;98.30;;;;;;5072280;28;20112;-71
2021/01/14 05:58:59;;;;;;;7.47;3.28;;;4.10;98.40;;;;;;5072013;28;20029;-71
2021/01/14 06:01:25;;;;;;;9.60;3.75;;;4.10;98.60;;;;;;5070619;28;20024;-70
2021/01/14 06:03:51;;;;;;;7.90;3.78;;;4.20;98.80;;;;;;5072020;28;20033;-70
2021/01/14 06:06:17;;;;;;;11.40;3.80;;;4.20;98.70;;;;;;5073250;28;20071;-70
2021/01/14 06:08:43;;;;;;;7.25;3.40;;;4.20;98.70;;;;;;5071869;28;20113;-70
2021/01/14 06:11:20;;;;;;;7.50;3.90;;;4.30;98.80;;;;;;5057994;28;20473;-70
2021/01/14 06:13:46;;;;;;;13.93;3.80;;;4.20;98.90;;;;;;5050549;28;20037;-70
2021/01/14 06:16:12;;;;;;;11.25;3.80;;;4.10;99.20;;;;;;5050735;28;20363;-70
2021/01/14 06:18:37;;;;;;;8.15;3.72;;;4.20;99.30;;;;;;5051520;28;20473;-70
2021/01/14 06:21:03;;;;;;;10.57;4.03;;;4.20;99.10;;;;;;5053131;28;20029;-71
2021/01/14 06:23:44;;;;;;;11.55;4.70;;;4.20;99.20;;;;;;5050813;28;20029;-71
2021/01/14 06:26:10;;;;;;;9.73;4.40;;;4.30;99.20;;;;;;5051409;28;20419;-70
2021/01/14 06:28:35;;;;;;;9.15;4.57;;;4.30;99.20;;;;;;5051861;28;20040;-71
2021/01/14 06:31:09;;;;;;;12.00;4.72;;;4.20;99.30;;;;;;5051585;28;20455;-70
2021/01/14 06:33:36;;;;;;;13.27;4.88;;;4.20;99.40;;;;;;5051337;28;20033;-72
2021/01/14 06:36:12;;;;;;;15.15;4.72;;;4.30;99.40;;;;;;5052920;28;20036;-72
2021/01/14 06:38:42;;;;;;;12.30;4.85;;;4.40;99.40;;;;;;5051432;28;20049;-70
2021/01/14 06:41:19;;;;;;;12.48;4.90;;;4.40;99.30;;;;;;5051524;28;20033;-71
2021/01/14 06:43:48;;;;;;;10.10;4.38;;;4.40;99.20;;;;;;5062308;28;20037;-70
2021/01/14 06:46:14;;;;;;;14.00;4.60;;;4.40;99.30;;;;;;5070426;28;20108;-70
2021/01/14 06:49:06;;;;;;;11.18;4.30;;;4.30;99.20;;;;;;5070154;28;20079;-71
2021/01/14 06:51:52;;;;;;;19.55;6.53;;;4.30;99.40;;;;;;5071198;28;20031;-71
2021/01/14 06:54:19;;;;;;;18.35;5.18;;;4.40;99.40;;;;;;5072868;28;20027;-71
2021/01/14 06:57:13;;;;;;;22.30;5.35;;;4.50;99.40;;;;;;5071344;28;20044;-71
2021/01/14 06:59:39;;;;;;;12.82;5.05;;;4.50;99.30;;;;;;5070408;28;20079;-70
2021/01/14 07:02:05;;;;;;;14.20;5.63;;;4.40;99.40;;;;;;5070422;28;20032;-71
2021/01/14 07:04:52;;;;;;;13.93;5.55;;;4.50;99.40;;;;;;5071068;28;20039;-71
2021/01/14 07:07:27;;;;;;;13.23;4.57;;;4.50;99.40;;;;;;5069990;28;20036;-72
2021/01/14 07:10:06;;;;;;;12.52;5.30;;;4.50;99.40;;;;;;5071110;28;20033;-71
2021/01/14 07:12:37;;;;;;;16.55;4.60;;;4.50;99.40;;;;;;5071015;28;20036;-70
2021/01/14 07:15:14;;;;;;;14.70;5.95;;;4.50;99.50;;;;;;5072695;28;20060;-70
2021/01/14 07:17:43;;;;;;;14.95;5.30;;;4.50;99.50;;;;;;5070329;28;20033;-71
2021/01/14 07:20:11;;;;;;;16.90;6.03;;;4.60;99.60;;;;;;5070658;28;20493;-70
2021/01/14 07:22:38;;;;;;;;;;;4.60;99.60;;;;;;5068473;28;20363;-71
2021/01/14 07:25:05;;;;;;;13.13;5.63;;;4.50;99.60;;;;;;5071987;28;19924;-71
2021/01/14 07:27:35;;;;;;;11.80;4.97;;;4.60;99.70;;;;;;5070752;28;20035;-71
2021/01/14 07:30:01;;;;;;;14.15;5.15;;;4.60;99.60;;;;;;5072545;28;20257;-70
2021/01/14 07:32:51;;;;;;;12.30;6.00;;;4.50;99.70;;;;;;5069987;28;20037;-71
2021/01/14 07:35:44;;;;;;;15.15;6.30;;;4.50;99.70;;;;;;5070822;28;20119;-70
2021/01/14 07:38:17;;;;;;;10.77;5.32;;;4.50;99.80;;;;;;5071868;28;20117;-71
2021/01/14 07:40:45;;;;;;;14.73;6.15;;;4.50;99.70;;;;;;5074511;28;20256;-70
2021/01/14 07:43:14;;;;;;;17.75;5.95;;;4.40;99.90;;;;;;5057088;28;20045;-69
2021/01/14 07:45:41;;;;;;;16.63;6.65;;;4.40;99.90;;;;;;5074555;28;20354;-69
2021/01/14 07:48:21;;;;;;;16.30;7.03;;;4.40;99.90;;;;;;5076089;28;20087;-69
2021/01/14 07:50:59;;;;;;;12.48;6.15;;;4.40;99.90;;;;;;5073190;28;20043;-68
2021/01/14 07:53:26;;;;;;;16.60;6.70;;;4.40;99.90;;;;;;5074041;28;20044;-69
2021/01/14 07:55:53;;;;;;;22.88;7.25;;;4.50;99.90;;;;;;5074316;28;20037;-69
2021/01/14 07:58:21;;;;;;;25.00;7.22;;;4.50;99.90;;;;;;5074015;28;20083;-73
2021/01/14 08:00:59;;;;;;;11.23;5.95;;;4.40;99.90;;;;;;5074125;28;20052;-70
2021/01/14 08:03:35;;;;;;;18.00;6.78;;;4.40;99.90;;;;;;5074484;28;20021;-72
2021/01/14 08:06:34;;;;;;;14.80;6.70;;;4.50;99.90;;;;;;5074155;28;20040;-74
2021/01/14 08:09:04;;;;;;;13.60;6.72;;;4.50;99.90;;;;;;5070214;28;20116;-72
2021/01/14 08:11:37;;;;;;;13.30;6.93;;;4.50;99.90;;;;;;5072457;28;20040;-70
2021/01/14 08:14:10;;;;;;;17.48;6.88;;;4.50;99.90;;;;;;5073958;28;20110;-68
2021/01/14 08:16:50;;;;;;;17.33;6.80;;;4.40;99.90;;;;;;5073877;28;20052;-68
2021/01/14 08:19:20;;;;;;;11.75;6.35;;;4.50;99.90;;;;;;5073779;28;20059;-68
2021/01/14 08:21:48;;;;;;;13.35;6.90;;;4.40;99.90;;;;;;5073779;28;20040;-67
2021/01/14 08:24:38;;;;;;;;;;;4.40;99.90;;;;;;5075804;28;20113;-69
2021/01/14 08:27:04;;;;;;;21.45;8.88;;;4.40;99.90;;;;;;5074339;28;19913;-68
2021/01/14 08:29:34;;;;;;;14.40;7.85;;;4.50;99.90;;;;;;5073725;28;20123;-75
2021/01/14 08:32:00;;;;;;;12.70;5.72;;;4.50;99.90;;;;;;5072755;28;20025;-68
2021/01/14 08:34:27;;;;;;;15.77;6.72;;;4.60;99.90;;;;;;5073711;28;20029;-68
2021/01/14 08:36:54;;;;;;;12.02;6.32;;;4.70;99.90;;;;;;5073486;28;20039;-67
2021/01/14 08:39:22;;;;;;;12.77;6.57;;;4.70;99.80;;;;;;5074724;28;20092;-68
2021/01/14 08:41:49;;;;;;;14.88;7.00;;;4.60;99.70;;;;;;5073491;28;20046;-68
2021/01/14 08:44:19;;;;;;;14.85;6.75;;;4.60;99.90;;;;;;5073352;28;20040;-67
2021/01/14 08:46:50;;;;;;;14.35;7.13;;;4.60;99.80;;;;;;5073235;28;20055;-68
2021/01/14 08:49:18;;;;;;;19.73;8.07;;;4.70;99.80;;;;;;5072063;28;20039;-69
2021/01/14 08:51:44;;;;;;;19.17;7.53;;;4.80;99.70;;;;;;5073256;28;20028;-69
2021/01/14 08:54:11;;;;;;;21.45;8.52;;;4.80;99.80;;;;;;5074769;28;20386;-70
2021/01/14 08:56:38;;;;;;;17.73;7.38;;;4.80;99.70;;;;;;5073079;28;20048;-68
2021/01/14 08:59:12;;;;;;;20.50;7.82;;;4.80;99.40;;;;;;5071522;28;20089;-71
2021/01/14 09:01:38;;;;;;;16.42;7.57;;;4.90;99.60;;;;;;5072990;28;20052;-69
2021/01/14 09:04:09;;;;;;;13.73;6.50;;;4.90;99.60;;;;;;5073209;28;20028;-70
2021/01/14 09:06:39;;;;;;;18.00;7.45;;;4.90;99.60;;;;;;5072868;28;20025;-70
2021/01/14 09:09:13;;;;;;;20.83;9.93;;;4.80;99.60;;;;;;5074635;28;20013;-72
2021/01/14 09:11:39;;;;;;;13.35;7.18;;;5.00;99.90;;;;;;5073010;28;20103;-73
2021/01/14 09:14:09;;;;;;;16.90;7.70;;;5.00;99.50;;;;;;5072325;28;20064;-75
2021/01/14 09:16:37;;;;;;;18.63;6.38;;;5.00;99.40;;;;;;5071510;28;20082;-74
2021/01/14 09:19:17;;;;;;;15.93;7.15;;;5.00;99.10;;;;;;5069383;28;20025;-72
2021/01/14 09:21:43;;;;;;;17.95;6.38;;;5.00;99.10;;;;;;5071377;28;20024;-70
2021/01/14 09:24:11;;;;;;;18.10;6.78;;;5.10;99.10;;;;;;5074339;28;20118;-73
2021/01/14 09:26:38;;;;;;;16.58;7.00;;;5.00;99.20;;;;;;5072461;28;20047;-74
2021/01/14 09:29:06;;;;;;;20.77;7.47;;;5.10;99.30;;;;;;5071487;28;20059;-74
2021/01/14 09:31:33;;;;;;;12.70;6.13;;;5.10;99.40;;;;;;5071361;28;20253;-72
2021/01/14 09:34:00;;;;;;;18.90;7.53;;;5.10;99.30;;;;;;5072017;28;20024;-70
2021/01/14 09:36:26;;;;;;;12.40;6.38;;;5.00;99.30;;;;;;5074223;28;20097;-70
2021/01/14 09:38:54;;;;;;;17.83;8.68;;;5.10;99.20;;;;;;5072246;28;20080;-69
2021/01/14 09:41:29;;;;;;;16.77;7.82;;;5.20;99.50;;;;;;5071195;28;20028;-71
2021/01/14 09:44:15;;;;;;;12.90;7.05;;;5.20;99.30;;;;;;5071147;28;20033;-71
2021/01/14 09:46:42;;;;;;;16.60;7.00;;;5.20;99.00;;;;;;5071664;28;20038;-70
2021/01/14 09:49:11;;;;;;;15.15;7.65;;;5.20;99.00;;;;;;5072287;28;20025;-70
2021/01/14 09:51:38;;;;;;;20.33;7.28;;;5.20;99.00;;;;;;5070766;28;20442;-72
2021/01/14 09:54:06;;;;;;;15.07;7.30;;;5.10;99.00;;;;;;5074033;28;20454;-72
2021/01/14 09:56:34;;;;;;;14.88;6.88;;;5.10;99.00;;;;;;5072278;28;20089;-70
2021/01/14 09:59:26;;;;;;;23.00;9.13;;;5.10;99.00;;;;;;5070745;28;20036;-70
2021/01/14 10:02:01;;;;;;;17.83;7.85;;;5.10;99.20;;;;;;5065209;28;20458;-70
2021/01/14 10:04:28;;;;;;;22.45;8.75;;;5.20;99.20;;;;;;5071700;28;20169;-70
2021/01/14 10:07:06;;;;;;;15.82;7.22;;;5.20;99.00;;;;;;5071887;28;20033;-71
2021/01/14 10:09:36;;;;;;;14.48;7.47;;;5.10;99.10;;;;;;5070703;28;20025;-69
2021/01/14 10:12:04;;;;;;;12.77;6.30;;;5.10;99.00;;;;;;5072070;28;20025;-70
2021/01/14 10:14:30;;;;;;;18.50;7.30;;;5.20;99.10;;;;;;5070522;28;20033;-70
2021/01/14 10:16:56;;;;;;;16.48;7.70;;;5.20;99.10;;;;;;5071325;28;20033;-69
2021/01/14 10:19:21;;;;;;;20.98;8.43;;;5.10;99.00;;;;;;5071719;28;20025;-71
2021/01/14 10:21:50;;;;;;;19.83;7.85;;;5.10;99.00;;;;;;5071738;28;20110;-69
2021/01/14 10:24:29;;;;;;;18.98;7.72;;;5.20;99.30;;;;;;5073196;28;20095;-69
2021/01/14 10:27:11;;;;;;;18.23;7.57;;;5.20;98.90;;;;;;5071771;28;20362;-70
2021/01/14 10:29:39;;;;;;;18.00;7.57;;;5.20;98.90;;;;;;5071744;28;20086;-70
2021/01/14 10:32:09;;;;;;;17.95;8.05;;;5.30;98.80;;;;;;5070387;28;20474;-70
2021/01/14 10:34:49;;;;;;;15.55;7.30;;;5.20;98.60;;;;;;5070729;28;20037;-70
2021/01/14 10:37:25;;;;;;;17.10;7.68;;;5.20;99.00;;;;;;5071436;28;20028;-71
2021/01/14 10:39:53;;;;;;;19.33;9.63;;;5.20;98.80;;;;;;5071654;28;20041;-70
2021/01/14 10:42:32;;;;;;;16.23;7.63;;;5.30;98.80;;;;;;5073304;28;20405;-69
2021/01/14 10:45:02;;;;;;;15.70;6.93;;;5.20;98.60;;;;;;5071657;28;20036;-69
2021/01/14 10:47:28;;;;;;;19.52;8.18;;;5.30;98.60;;;;;;5070348;28;20051;-71
2021/01/14 10:49:54;;;;;;;21.90;7.43;;;5.30;98.70;;;;;;5070108;28;20462;-69
2021/01/14 10:52:20;;;;;;;20.10;7.50;;;5.30;98.70;;;;;;5070577;28;20045;-70
2021/01/14 10:55:02;;;;;;;17.05;7.07;;;5.40;98.60;;;;;;5071347;28;20016;-71
2021/01/14 10:57:54;;;;;;;18.40;7.70;;;5.40;98.70;;;;;;5071852;28;20035;-70
2021/01/14 11:00:48;;;;;;;16.90;7.55;;;5.50;98.60;;;;;;5073099;28;20154;-69
2021/01/14 11:03:20;;;;;;;18.05;7.63;;;5.40;98.60;;;;;;5070469;28;20498;-71
2021/01/14 11:05:55;;;;;;;19.60;8.10;;;5.30;98.70;;;;;;5071120;28;20075;-71
2021/01/14 11:08:30;;;;;;;17.63;7.63;;;5.30;98.70;;;;;;5071074;28;20074;-71
2021/01/14 11:11:07;;;;;;;18.50;9.60;;;5.40;98.80;;;;;;5071122;28;20097;-72
2021/01/14 11:13:46;;;;;;;15.90;7.13;;;5.30;98.60;;;;;;5073107;28;20043;-71
2021/01/14 11:16:13;;;;;;;17.65;8.20;;;5.40;98.80;;;;;;5075404;28;20036;-70
2021/01/14 11:18:43;;;;;;;16.23;7.53;;;5.50;98.70;;;;;;5074821;28;20029;-71
2021/01/14 11:21:11;;;;;;;22.35;7.97;;;5.40;98.60;;;;;;5076364;28;20024;-72
2021/01/14 11:23:37;;;;;;;14.00;6.95;;;5.30;98.50;;;;;;5074972;28;20036;-71
2021/01/14 11:26:04;;;;;;;15.98;6.57;;;5.20;98.90;;;;;;5075229;28;20091;-72
2021/01/14 11:28:31;;;;;;;18.55;8.15;;;5.20;98.70;;;;;;5073803;28;20081;-71
2021/01/14 11:30:57;;;;;;;15.50;8.02;;;5.30;98.80;;;;;;5074821;28;20032;-69
2021/01/14 11:33:23;;;;;;;17.88;7.60;;;5.30;98.80;;;;;;5076368;28;20049;-69
2021/01/14 11:35:49;;;;;;;15.40;7.90;;;5.30;98.50;;;;;;5074548;28;20029;-70
2021/01/14 11:38:15;;;;;;;15.18;7.40;;;5.30;98.50;;;;;;5074260;28;20656;-70
2021/01/14 11:40:41;;;;;;;20.60;10.02;;;5.30;98.50;;;;;;5074570;28;20496;-70
2021/01/14 11:43:06;;;;;;;19.27;7.80;;;5.40;98.70;;;;;;5074083;28;20032;-72
2021/01/14 11:45:32;;;;;;;18.60;7.93;;;5.50;98.60;;;;;;5074383;28;20035;-71
2021/01/14 11:47:58;;;;;;;14.63;7.25;;;5.50;98.70;;;;;;5075927;28;20021;-70
2021/01/14 11:50:24;;;;;;;17.95;7.65;;;5.60;98.60;;;;;;5074134;28;20161;-69
2021/01/14 11:52:50;;;;;;;19.80;8.10;;;5.60;98.50;;;;;;5074098;28;20474;-74
2021/01/14 11:55:16;;;;;;;23.45;7.15;;;5.60;98.40;;;;;;5074190;28;20040;-71
2021/01/14 11:57:41;;;;;;;18.10;7.38;;;5.70;98.30;;;;;;5074148;28;20021;-71
2021/01/14 12:00:08;;;;;;;16.13;7.57;;;5.70;98.30;;;;;;5074729;28;20443;-70
2021/01/14 12:02:34;;;;;;;17.17;7.80;;;5.70;98.20;;;;;;5074296;28;20029;-70
2021/01/14 12:05:00;;;;;;;16.10;7.13;;;5.80;98.20;;;;;;5061422;28;20393;-70
2021/01/14 12:07:26;;;;;;;12.10;6.78;;;5.80;97.90;;;;;;5062273;28;20040;-69
2021/01/14 12:09:51;;;;;;;14.63;7.47;;;5.70;97.80;;;;;;5073957;28;20116;-69
2021/01/14 12:12:17;;;;;;;17.00;7.53;;;5.70;97.80;;;;;;5074178;28;20135;-68
2021/01/14 12:14:43;;;;;;;14.65;6.35;;;5.70;97.90;;;;;;5073671;28;20032;-69
2021/01/14 12:17:08;;;;;;;11.07;6.70;;;5.70;97.90;;;;;;5074025;28;20037;-69
2021/01/14 12:19:34;;;;;;;12.85;6.72;;;5.70;97.90;;;;;;5073850;28;20028;-72
2021/01/14 12:22:01;;;;;;;20.58;7.45;;;5.70;97.80;;;;;;5073509;28;20370;-73
2021/01/14 12:24:27;;;;;;;18.93;7.17;;;5.90;98.10;;;;;;5073180;28;20030;-72
2021/01/14 12:26:53;;;;;;;13.95;6.30;;;5.90;97.90;;;;;;5074220;28;20664;-71
2021/01/14 12:29:19;;;;;;;17.15;7.07;;;5.80;97.60;;;;;;5073664;28;20115;-75
2021/01/14 12:31:44;;;;;;;19.17;7.03;;;5.70;97.60;;;;;;5073394;28;20121;-71
2021/01/14 12:34:10;;;;;;;13.00;7.35;;;5.80;97.80;;;;;;5072766;28;20025;-72
2021/01/14 12:36:36;;;;;;;13.38;6.57;;;5.80;97.80;;;;;;5072285;28;20017;-68
2021/01/14 12:39:01;;;;;;;14.63;6.97;;;5.80;97.70;;;;;;5055033;28;20051;-69
2021/01/14 12:41:32;;;;;;;15.30;6.20;;;5.80;97.40;;;;;;5068767;28;20124;-70
2021/01/14 12:43:57;;;;;;;18.65;7.43;;;5.80;97.60;;;;;;5073514;28;20033;-72
2021/01/14 12:46:41;;;;;;;12.10;5.97;;;5.80;97.40;;;;;;5072029;28;20132;-79
2021/01/14 12:49:07;;;;;;;14.25;6.70;;;5.80;97.40;;;;;;5072510;28;20028;-75
2021/01/14 12:51:34;;;;;;;17.55;9.07;;;5.80;97.40;;;;;;5072187;28;20540;-74
2021/01/14 12:54:00;;;;;;;14.23;7.40;;;5.80;97.30;;;;;;5074660;28;20039;-74
2021/01/14 12:56:26;;;;;;;16.05;7.18;;;5.90;97.30;;;;;;5072965;28;20120;-72
2021/01/14 12:58:52;;;;;;;15.43;6.97;;;5.80;97.00;;;;;;5072875;28;20111;-70
2021/01/14 13:01:25;;;;;;;11.45;6.20;;;5.80;97.10;;;;;;5073049;28;20119;-71
2021/01/14 13:03:51;;;;;;;10.38;5.97;;;5.70;96.80;;;;;;5073232;28;20300;-72